sensor_id;sensor_type;location;lat;lon;timestamp;P1;durP1;ratioP1;P2;durP2;ratioP2
4365;SDS011;2196;47.422;9.656;2024-02-15T00:00:15;6.00;;;4.00;;
4365;SDS011;2196;47.422;9.656;2024-02-15T00:02:42;6.53;;;4.60;;
4365;SDS011;2196;47.422;9.656;2024-02-15T00:05:10;6.13;;;5.17;;
4365;SDS011;2196;47.422;9.656;2024-02-15T00:07:39;4.83;;;4.03;;
4365;SDS011;2196;47.422;9.656;2024-02-15T00:10:07;5.23;;;4.00;;
4365;SDS011;2196;47.422;9.656;2024-02-15T00:12:34;4.53;;;3.93;;
4365;SDS011;2196;47.422;9.656;2024-02-15T00:15:01;9.10;;;5.10;;
4365;SDS011;2196;47.422;9.656;2024-02-15T00:17:31;8.80;;;4.80;;
4365;SDS011;2196;47.422;9.656;2024-02-15T00:20:00;7.27;;;4.77;;
4365;SDS011;2196;47.422;9.656;2024-02-15T00:22:29;7.33;;;5.53;;
4365;SDS011;2196;47.422;9.656;2024-02-15T00:24:59;6.83;;;4.73;;
4365;SDS011;2196;47.422;9.656;2024-02-15T00:27:27;7.97;;;4.03;;
4365;SDS011;2196;47.422;9.656;2024-02-15T00:29:55;5.83;;;5.23;;
4365;SDS011;2196;47.422;9.656;2024-02-15T00:32:22;4.90;;;4.40;;
4365;SDS011;2196;47.422;9.656;2024-02-15T00:34:49;4.80;;;4.20;;
4365;SDS011;2196;47.422;9.656;2024-02-15T00:37:16;5.20;;;4.17;;
4365;SDS011;2196;47.422;9.656;2024-02-15T00:39:43;3.87;;;3.57;;
4365;SDS011;2196;47.422;9.656;2024-02-15T00:42:11;5.60;;;4.00;;
4365;SDS011;2196;47.422;9.656;2024-02-15T00:44:40;5.20;;;3.50;;
4365;SDS011;2196;47.422;9.656;2024-02-15T00:47:09;3.60;;;3.37;;
4365;SDS011;2196;47.422;9.656;2024-02-15T00:49:36;4.27;;;3.70;;
4365;SDS011;2196;47.422;9.656;2024-02-15T00:52:04;6.23;;;3.20;;
4365;SDS011;2196;47.422;9.656;2024-02-15T00:54:31;5.10;;;3.63;;
4365;SDS011;2196;47.422;9.656;2024-02-15T00:56:58;4.23;;;3.67;;
4365;SDS011;2196;47.422;9.656;2024-02-15T00:59:27;4.07;;;3.43;;
4365;SDS011;2196;47.422;9.656;2024-02-15T01:01:54;4.77;;;3.37;;
4365;SDS011;2196;47.422;9.656;2024-02-15T01:04:21;4.00;;;3.60;;
4365;SDS011;2196;47.422;9.656;2024-02-15T01:06:48;3.37;;;3.07;;
4365;SDS011;2196;47.422;9.656;2024-02-15T01:09:16;3.43;;;2.50;;
4365;SDS011;2196;47.422;9.656;2024-02-15T01:11:43;3.20;;;2.90;;
4365;SDS011;2196;47.422;9.656;2024-02-15T01:14:11;3.70;;;3.07;;
4365;SDS011;2196;47.422;9.656;2024-02-15T01:16:39;3.13;;;2.60;;
4365;SDS011;2196;47.422;9.656;2024-02-15T01:19:07;6.20;;;2.77;;
4365;SDS011;2196;47.422;9.656;2024-02-15T01:21:34;4.53;;;3.67;;
4365;SDS011;2196;47.422;9.656;2024-02-15T01:24:01;5.77;;;4.17;;
4365;SDS011;2196;47.422;9.656;2024-02-15T01:26:29;7.83;;;3.73;;
4365;SDS011;2196;47.422;9.656;2024-02-15T01:28:56;5.43;;;3.70;;
4365;SDS011;2196;47.422;9.656;2024-02-15T01:31:23;4.43;;;3.60;;
4365;SDS011;2196;47.422;9.656;2024-02-15T01:33:52;4.77;;;4.10;;
4365;SDS011;2196;47.422;9.656;2024-02-15T01:36:19;5.47;;;3.53;;
4365;SDS011;2196;47.422;9.656;2024-02-15T01:38:46;5.40;;;4.00;;
4365;SDS011;2196;47.422;9.656;2024-02-15T01:41:13;10.83;;;4.60;;
4365;SDS011;2196;47.422;9.656;2024-02-15T01:43:43;7.00;;;4.00;;
4365;SDS011;2196;47.422;9.656;2024-02-15T01:46:11;4.07;;;3.67;;
4365;SDS011;2196;47.422;9.656;2024-02-15T01:48:39;3.97;;;3.57;;
4365;SDS011;2196;47.422;9.656;2024-02-15T01:51:08;8.87;;;3.90;;
4365;SDS011;2196;47.422;9.656;2024-02-15T01:53:36;6.30;;;3.60;;
4365;SDS011;2196;47.422;9.656;2024-02-15T01:56:05;5.97;;;3.23;;
4365;SDS011;2196;47.422;9.656;2024-02-15T01:58:32;3.67;;;3.10;;
4365;SDS011;2196;47.422;9.656;2024-02-15T02:01:00;2.53;;;2.43;;
4365;SDS011;2196;47.422;9.656;2024-02-15T02:03:28;3.90;;;3.27;;
4365;SDS011;2196;47.422;9.656;2024-02-15T02:05:56;4.47;;;3.10;;
4365;SDS011;2196;47.422;9.656;2024-02-15T02:08:24;2.60;;;2.40;;
4365;SDS011;2196;47.422;9.656;2024-02-15T02:10:52;2.77;;;2.57;;
4365;SDS011;2196;47.422;9.656;2024-02-15T02:13:19;3.33;;;2.37;;
4365;SDS011;2196;47.422;9.656;2024-02-15T02:15:46;5.23;;;3.40;;
4365;SDS011;2196;47.422;9.656;2024-02-15T02:18:14;4.30;;;3.03;;
4365;SDS011;2196;47.422;9.656;2024-02-15T02:20:42;2.63;;;2.43;;
4365;SDS011;2196;47.422;9.656;2024-02-15T02:23:13;3.50;;;3.20;;
4365;SDS011;2196;47.422;9.656;2024-02-15T02:25:42;3.30;;;2.90;;
4365;SDS011;2196;47.422;9.656;2024-02-15T02:28:13;5.83;;;3.30;;
4365;SDS011;2196;47.422;9.656;2024-02-15T02:30:41;3.30;;;3.03;;
4365;SDS011;2196;47.422;9.656;2024-02-15T02:33:10;2.50;;;2.30;;
4365;SDS011;2196;47.422;9.656;2024-02-15T02:35:43;4.27;;;3.03;;
4365;SDS011;2196;47.422;9.656;2024-02-15T02:38:11;3.27;;;2.90;;
4365;SDS011;2196;47.422;9.656;2024-02-15T02:40:38;4.07;;;2.57;;
4365;SDS011;2196;47.422;9.656;2024-02-15T02:43:07;4.93;;;2.43;;
4365;SDS011;2196;47.422;9.656;2024-02-15T02:45:34;3.10;;;2.83;;
4365;SDS011;2196;47.422;9.656;2024-02-15T02:48:02;5.60;;;2.90;;
4365;SDS011;2196;47.422;9.656;2024-02-15T02:50:29;2.07;;;1.97;;
4365;SDS011;2196;47.422;9.656;2024-02-15T02:52:57;3.23;;;2.40;;
4365;SDS011;2196;47.422;9.656;2024-02-15T02:55:24;3.70;;;2.30;;
4365;SDS011;2196;47.422;9.656;2024-02-15T02:57:52;2.17;;;2.07;;
4365;SDS011;2196;47.422;9.656;2024-02-15T03:00:21;2.90;;;2.70;;
4365;SDS011;2196;47.422;9.656;2024-02-15T03:02:48;4.73;;;3.43;;
4365;SDS011;2196;47.422;9.656;2024-02-15T03:05:16;5.00;;;3.67;;
4365;SDS011;2196;47.422;9.656;2024-02-15T03:07:45;4.43;;;4.03;;
4365;SDS011;2196;47.422;9.656;2024-02-15T03:10:13;4.97;;;3.90;;
4365;SDS011;2196;47.422;9.656;2024-02-15T03:12:41;2.53;;;2.43;;
4365;SDS011;2196;47.422;9.656;2024-02-15T03:15:12;3.83;;;3.17;;
4365;SDS011;2196;47.422;9.656;2024-02-15T03:17:41;2.80;;;2.47;;
4365;SDS011;2196;47.422;9.656;2024-02-15T03:20:09;7.40;;;2.97;;
4365;SDS011;2196;47.422;9.656;2024-02-15T03:22:38;5.73;;;3.30;;
4365;SDS011;2196;47.422;9.656;2024-02-15T03:25:07;5.73;;;3.60;;
4365;SDS011;2196;47.422;9.656;2024-02-15T03:30:02;4.30;;;3.00;;
4365;SDS011;2196;47.422;9.656;2024-02-15T03:32:30;3.80;;;2.73;;
4365;SDS011;2196;47.422;9.656;2024-02-15T03:34:59;6.17;;;3.93;;
4365;SDS011;2196;47.422;9.656;2024-02-15T03:37:27;3.97;;;3.43;;
4365;SDS011;2196;47.422;9.656;2024-02-15T03:39:55;5.07;;;3.67;;
4365;SDS011;2196;47.422;9.656;2024-02-15T03:42:22;3.13;;;2.87;;
4365;SDS011;2196;47.422;9.656;2024-02-15T03:44:50;3.53;;;3.20;;
4365;SDS011;2196;47.422;9.656;2024-02-15T03:47:19;5.07;;;3.60;;
4365;SDS011;2196;47.422;9.656;2024-02-15T03:49:46;3.13;;;2.67;;
4365;SDS011;2196;47.422;9.656;2024-02-15T03:52:15;3.00;;;2.20;;
4365;SDS011;2196;47.422;9.656;2024-02-15T03:54:42;1.80;;;1.70;;
4365;SDS011;2196;47.422;9.656;2024-02-15T03:57:10;2.23;;;2.00;;
4365;SDS011;2196;47.422;9.656;2024-02-15T03:59:38;1.97;;;1.83;;
4365;SDS011;2196;47.422;9.656;2024-02-15T04:02:05;1.53;;;1.43;;
4365;SDS011;2196;47.422;9.656;2024-02-15T04:04:39;2.00;;;1.80;;
4365;SDS011;2196;47.422;9.656;2024-02-15T04:07:07;1.60;;;1.60;;
4365;SDS011;2196;47.422;9.656;2024-02-15T04:09:38;3.20;;;2.50;;
4365;SDS011;2196;47.422;9.656;2024-02-15T04:12:06;4.13;;;2.17;;
4365;SDS011;2196;47.422;9.656;2024-02-15T04:14:33;3.83;;;2.27;;
4365;SDS011;2196;47.422;9.656;2024-02-15T04:17:00;1.97;;;1.87;;
4365;SDS011;2196;47.422;9.656;2024-02-15T04:19:28;1.83;;;1.73;;
4365;SDS011;2196;47.422;9.656;2024-02-15T04:21:55;2.17;;;1.97;;
4365;SDS011;2196;47.422;9.656;2024-02-15T04:24:22;1.77;;;1.67;;
4365;SDS011;2196;47.422;9.656;2024-02-15T04:26:52;1.87;;;1.77;;
4365;SDS011;2196;47.422;9.656;2024-02-15T04:29:19;2.67;;;1.77;;
4365;SDS011;2196;47.422;9.656;2024-02-15T04:31:46;3.63;;;2.77;;
4365;SDS011;2196;47.422;9.656;2024-02-15T04:34:14;5.93;;;4.33;;
4365;SDS011;2196;47.422;9.656;2024-02-15T04:36:43;7.97;;;4.40;;
4365;SDS011;2196;47.422;9.656;2024-02-15T04:39:10;4.97;;;3.43;;
4365;SDS011;2196;47.422;9.656;2024-02-15T04:41:48;2.80;;;2.50;;
4365;SDS011;2196;47.422;9.656;2024-02-15T04:44:17;3.10;;;2.53;;
4365;SDS011;2196;47.422;9.656;2024-02-15T04:46:45;3.20;;;2.30;;
4365;SDS011;2196;47.422;9.656;2024-02-15T04:49:14;2.47;;;1.97;;
4365;SDS011;2196;47.422;9.656;2024-02-15T04:51:41;3.63;;;3.07;;
4365;SDS011;2196;47.422;9.656;2024-02-15T04:54:09;3.57;;;2.10;;
4365;SDS011;2196;47.422;9.656;2024-02-15T04:56:38;2.83;;;2.03;;
4365;SDS011;2196;47.422;9.656;2024-02-15T04:59:05;1.93;;;1.60;;
4365;SDS011;2196;47.422;9.656;2024-02-15T05:01:35;2.60;;;1.90;;
4365;SDS011;2196;47.422;9.656;2024-02-15T05:04:04;2.83;;;2.20;;
4365;SDS011;2196;47.422;9.656;2024-02-15T05:06:32;2.30;;;2.10;;
4365;SDS011;2196;47.422;9.656;2024-02-15T05:09:01;2.13;;;1.97;;
4365;SDS011;2196;47.422;9.656;2024-02-15T05:11:32;1.97;;;1.57;;
4365;SDS011;2196;47.422;9.656;2024-02-15T05:14:01;3.77;;;2.70;;
4365;SDS011;2196;47.422;9.656;2024-02-15T05:16:32;2.33;;;2.23;;
4365;SDS011;2196;47.422;9.656;2024-02-15T05:19:01;2.50;;;2.40;;
4365;SDS011;2196;47.422;9.656;2024-02-15T05:21:30;2.80;;;2.60;;
4365;SDS011;2196;47.422;9.656;2024-02-15T05:23:58;2.70;;;2.50;;
4365;SDS011;2196;47.422;9.656;2024-02-15T05:26:26;2.70;;;2.10;;
4365;SDS011;2196;47.422;9.656;2024-02-15T05:28:53;3.03;;;2.43;;
4365;SDS011;2196;47.422;9.656;2024-02-15T05:31:20;3.83;;;3.03;;
4365;SDS011;2196;47.422;9.656;2024-02-15T05:33:50;5.30;;;2.60;;
4365;SDS011;2196;47.422;9.656;2024-02-15T05:36:20;3.03;;;2.20;;
4365;SDS011;2196;47.422;9.656;2024-02-15T05:38:51;3.00;;;2.80;;
4365;SDS011;2196;47.422;9.656;2024-02-15T05:41:19;2.93;;;2.73;;
4365;SDS011;2196;47.422;9.656;2024-02-15T05:43:47;3.60;;;3.27;;
4365;SDS011;2196;47.422;9.656;2024-02-15T05:46:14;5.27;;;3.23;;
4365;SDS011;2196;47.422;9.656;2024-02-15T05:48:41;4.10;;;2.67;;
4365;SDS011;2196;47.422;9.656;2024-02-15T05:51:09;4.27;;;3.17;;
4365;SDS011;2196;47.422;9.656;2024-02-15T05:53:38;4.10;;;3.53;;
4365;SDS011;2196;47.422;9.656;2024-02-15T05:56:07;9.03;;;4.57;;
4365;SDS011;2196;47.422;9.656;2024-02-15T05:58:35;4.90;;;4.50;;
4365;SDS011;2196;47.422;9.656;2024-02-15T06:01:03;6.77;;;4.27;;
4365;SDS011;2196;47.422;9.656;2024-02-15T06:03:32;6.10;;;4.07;;
4365;SDS011;2196;47.422;9.656;2024-02-15T06:06:01;8.77;;;3.67;;
4365;SDS011;2196;47.422;9.656;2024-02-15T06:08:31;7.00;;;5.13;;
4365;SDS011;2196;47.422;9.656;2024-02-15T06:11:00;10.27;;;4.57;;
4365;SDS011;2196;47.422;9.656;2024-02-15T06:13:27;6.30;;;4.20;;
4365;SDS011;2196;47.422;9.656;2024-02-15T06:15:55;6.33;;;4.93;;
4365;SDS011;2196;47.422;9.656;2024-02-15T06:18:23;5.77;;;5.13;;
4365;SDS011;2196;47.422;9.656;2024-02-15T06:20:52;8.90;;;4.90;;
4365;SDS011;2196;47.422;9.656;2024-02-15T06:23:22;8.00;;;4.60;;
4365;SDS011;2196;47.422;9.656;2024-02-15T06:25:51;6.17;;;5.03;;
4365;SDS011;2196;47.422;9.656;2024-02-15T06:28:20;5.47;;;3.97;;
4365;SDS011;2196;47.422;9.656;2024-02-15T06:31:02;8.80;;;4.27;;
4365;SDS011;2196;47.422;9.656;2024-02-15T06:33:47;6.07;;;5.07;;
4365;SDS011;2196;47.422;9.656;2024-02-15T06:36:31;7.73;;;5.50;;
4365;SDS011;2196;47.422;9.656;2024-02-15T06:39:15;11.03;;;6.73;;
4365;SDS011;2196;47.422;9.656;2024-02-15T06:42:00;12.07;;;6.00;;
4365;SDS011;2196;47.422;9.656;2024-02-15T06:44:29;8.63;;;5.27;;
4365;SDS011;2196;47.422;9.656;2024-02-15T06:46:56;10.47;;;4.90;;
4365;SDS011;2196;47.422;9.656;2024-02-15T06:49:24;6.97;;;4.17;;
4365;SDS011;2196;47.422;9.656;2024-02-15T06:51:52;4.77;;;3.93;;
4365;SDS011;2196;47.422;9.656;2024-02-15T06:54:19;4.80;;;3.53;;
4365;SDS011;2196;47.422;9.656;2024-02-15T06:56:47;4.47;;;3.00;;
4365;SDS011;2196;47.422;9.656;2024-02-15T06:59:17;4.83;;;3.43;;
4365;SDS011;2196;47.422;9.656;2024-02-15T07:01:45;6.70;;;3.47;;
4365;SDS011;2196;47.422;9.656;2024-02-15T07:04:13;6.10;;;3.67;;
4365;SDS011;2196;47.422;9.656;2024-02-15T07:06:40;3.50;;;2.03;;
4365;SDS011;2196;47.422;9.656;2024-02-15T07:09:10;5.63;;;2.00;;
4365;SDS011;2196;47.422;9.656;2024-02-15T07:11:37;2.67;;;2.47;;
4365;SDS011;2196;47.422;9.656;2024-02-15T07:14:04;3.40;;;2.37;;
4365;SDS011;2196;47.422;9.656;2024-02-15T07:16:32;8.00;;;2.97;;
4365;SDS011;2196;47.422;9.656;2024-02-15T07:19:01;5.17;;;3.07;;
4365;SDS011;2196;47.422;9.656;2024-02-15T07:21:29;8.17;;;3.37;;
4365;SDS011;2196;47.422;9.656;2024-02-15T07:23:57;6.57;;;2.93;;
4365;SDS011;2196;47.422;9.656;2024-02-15T07:26:24;5.70;;;2.73;;
4365;SDS011;2196;47.422;9.656;2024-02-15T07:28:52;7.87;;;2.70;;
4365;SDS011;2196;47.422;9.656;2024-02-15T07:31:21;2.03;;;1.93;;
4365;SDS011;2196;47.422;9.656;2024-02-15T07:33:48;5.43;;;3.23;;
4365;SDS011;2196;47.422;9.656;2024-02-15T07:36:19;3.17;;;2.97;;
4365;SDS011;2196;47.422;9.656;2024-02-15T07:38:46;4.13;;;3.13;;
4365;SDS011;2196;47.422;9.656;2024-02-15T07:41:14;3.63;;;2.77;;
4365;SDS011;2196;47.422;9.656;2024-02-15T07:43:43;5.43;;;3.00;;
4365;SDS011;2196;47.422;9.656;2024-02-15T07:46:12;5.07;;;4.00;;
4365;SDS011;2196;47.422;9.656;2024-02-15T07:48:41;6.20;;;3.40;;
4365;SDS011;2196;47.422;9.656;2024-02-15T07:51:11;4.43;;;3.43;;
4365;SDS011;2196;47.422;9.656;2024-02-15T07:53:40;8.90;;;3.93;;
4365;SDS011;2196;47.422;9.656;2024-02-15T07:56:07;6.63;;;3.77;;
4365;SDS011;2196;47.422;9.656;2024-02-15T07:58:37;9.40;;;3.10;;
4365;SDS011;2196;47.422;9.656;2024-02-15T08:01:06;4.50;;;3.60;;
4365;SDS011;2196;47.422;9.656;2024-02-15T08:03:34;5.37;;;3.17;;
4365;SDS011;2196;47.422;9.656;2024-02-15T08:06:01;4.27;;;2.37;;
4365;SDS011;2196;47.422;9.656;2024-02-15T08:08:32;3.63;;;1.63;;
4365;SDS011;2196;47.422;9.656;2024-02-15T08:11:03;4.93;;;1.77;;
4365;SDS011;2196;47.422;9.656;2024-02-15T08:13:30;2.03;;;1.93;;
4365;SDS011;2196;47.422;9.656;2024-02-15T08:15:57;1.63;;;1.53;;
4365;SDS011;2196;47.422;9.656;2024-02-15T08:18:24;3.20;;;1.33;;
4365;SDS011;2196;47.422;9.656;2024-02-15T08:20:52;5.13;;;2.93;;
4365;SDS011;2196;47.422;9.656;2024-02-15T08:23:21;5.50;;;1.47;;
4365;SDS011;2196;47.422;9.656;2024-02-15T08:25:49;2.20;;;1.97;;
4365;SDS011;2196;47.422;9.656;2024-02-15T08:28:18;4.00;;;1.53;;
4365;SDS011;2196;47.422;9.656;2024-02-15T08:30:46;1.67;;;1.53;;
4365;SDS011;2196;47.422;9.656;2024-02-15T08:33:13;5.00;;;1.27;;
4365;SDS011;2196;47.422;9.656;2024-02-15T08:35:40;1.63;;;1.53;;
4365;SDS011;2196;47.422;9.656;2024-02-15T08:38:07;1.80;;;1.07;;
4365;SDS011;2196;47.422;9.656;2024-02-15T08:40:35;0.90;;;0.90;;
4365;SDS011;2196;47.422;9.656;2024-02-15T08:43:02;3.60;;;1.17;;
4365;SDS011;2196;47.422;9.656;2024-02-15T08:45:31;0.80;;;0.80;;
4365;SDS011;2196;47.422;9.656;2024-02-15T08:47:58;1.07;;;1.00;;
4365;SDS011;2196;47.422;9.656;2024-02-15T08:50:25;3.67;;;0.80;;
4365;SDS011;2196;47.422;9.656;2024-02-15T08:52:53;1.80;;;0.73;;
4365;SDS011;2196;47.422;9.656;2024-02-15T08:55:20;3.27;;;1.77;;
4365;SDS011;2196;47.422;9.656;2024-02-15T08:57:51;1.47;;;0.93;;
4365;SDS011;2196;47.422;9.656;2024-02-15T09:00:19;7.63;;;2.63;;
4365;SDS011;2196;47.422;9.656;2024-02-15T09:02:48;4.27;;;2.50;;
4365;SDS011;2196;47.422;9.656;2024-02-15T09:05:16;5.60;;;3.63;;
4365;SDS011;2196;47.422;9.656;2024-02-15T09:07:44;2.30;;;2.07;;
4365;SDS011;2196;47.422;9.656;2024-02-15T09:10:13;7.70;;;2.50;;
4365;SDS011;2196;47.422;9.656;2024-02-15T09:12:42;4.50;;;2.10;;
4365;SDS011;2196;47.422;9.656;2024-02-15T09:15:12;4.60;;;2.13;;
4365;SDS011;2196;47.422;9.656;2024-02-15T09:17:39;1.90;;;1.70;;
4365;SDS011;2196;47.422;9.656;2024-02-15T09:20:10;1.57;;;1.30;;
4365;SDS011;2196;47.422;9.656;2024-02-15T09:22:40;3.93;;;1.73;;
4365;SDS011;2196;47.422;9.656;2024-02-15T09:25:08;3.30;;;1.70;;
4365;SDS011;2196;47.422;9.656;2024-02-15T09:27:36;2.40;;;1.50;;
4365;SDS011;2196;47.422;9.656;2024-02-15T09:30:03;2.20;;;1.30;;
4365;SDS011;2196;47.422;9.656;2024-02-15T09:32:33;1.43;;;1.33;;
4365;SDS011;2196;47.422;9.656;2024-02-15T09:35:01;0.80;;;0.80;;
4365;SDS011;2196;47.422;9.656;2024-02-15T09:37:31;2.20;;;2.10;;
4365;SDS011;2196;47.422;9.656;2024-02-15T09:39:58;2.70;;;1.10;;
4365;SDS011;2196;47.422;9.656;2024-02-15T09:42:30;1.53;;;1.33;;
4365;SDS011;2196;47.422;9.656;2024-02-15T09:44:59;2.30;;;2.10;;
4365;SDS011;2196;47.422;9.656;2024-02-15T09:47:27;1.40;;;1.33;;
4365;SDS011;2196;47.422;9.656;2024-02-15T09:50:00;1.23;;;1.10;;
4365;SDS011;2196;47.422;9.656;2024-02-15T09:52:28;0.97;;;0.97;;
4365;SDS011;2196;47.422;9.656;2024-02-15T09:54:57;1.00;;;1.00;;
4365;SDS011;2196;47.422;9.656;2024-02-15T09:57:31;3.40;;;1.80;;
4365;SDS011;2196;47.422;9.656;2024-02-15T09:59:58;2.03;;;1.33;;
4365;SDS011;2196;47.422;9.656;2024-02-15T10:02:28;1.70;;;1.17;;
4365;SDS011;2196;47.422;9.656;2024-02-15T10:04:56;3.53;;;1.80;;
4365;SDS011;2196;47.422;9.656;2024-02-15T10:07:24;2.43;;;1.10;;
4365;SDS011;2196;47.422;9.656;2024-02-15T10:09:58;1.73;;;1.60;;
4365;SDS011;2196;47.422;9.656;2024-02-15T10:12:41;2.67;;;1.00;;
4365;SDS011;2196;47.422;9.656;2024-02-15T10:15:09;1.87;;;1.20;;
4365;SDS011;2196;47.422;9.656;2024-02-15T10:17:36;3.40;;;1.00;;
4365;SDS011;2196;47.422;9.656;2024-02-15T10:20:04;1.00;;;0.87;;
4365;SDS011;2196;47.422;9.656;2024-02-15T10:22:32;1.23;;;1.10;;
4365;SDS011;2196;47.422;9.656;2024-02-15T10:25:13;2.70;;;1.03;;
4365;SDS011;2196;47.422;9.656;2024-02-15T10:27:41;1.70;;;0.90;;
4365;SDS011;2196;47.422;9.656;2024-02-15T10:30:15;1.63;;;1.30;;
4365;SDS011;2196;47.422;9.656;2024-02-15T10:32:42;2.17;;;0.80;;
4365;SDS011;2196;47.422;9.656;2024-02-15T10:35:10;1.90;;;1.07;;
4365;SDS011;2196;47.422;9.656;2024-02-15T10:37:40;3.40;;;0.93;;
4365;SDS011;2196;47.422;9.656;2024-02-15T10:40:08;1.37;;;1.27;;
4365;SDS011;2196;47.422;9.656;2024-02-15T10:42:39;0.93;;;0.70;;
4365;SDS011;2196;47.422;9.656;2024-02-15T10:45:08;0.87;;;0.80;;
4365;SDS011;2196;47.422;9.656;2024-02-15T10:47:37;1.27;;;0.93;;
4365;SDS011;2196;47.422;9.656;2024-02-15T10:50:06;1.27;;;0.73;;
4365;SDS011;2196;47.422;9.656;2024-02-15T10:52:36;1.47;;;0.70;;
4365;SDS011;2196;47.422;9.656;2024-02-15T10:55:08;0.57;;;0.57;;
4365;SDS011;2196;47.422;9.656;2024-02-15T10:57:42;0.87;;;0.70;;
4365;SDS011;2196;47.422;9.656;2024-02-15T11:00:12;1.83;;;1.53;;
4365;SDS011;2196;47.422;9.656;2024-02-15T11:02:47;2.13;;;0.70;;
4365;SDS011;2196;47.422;9.656;2024-02-15T11:05:17;0.77;;;0.60;;
4365;SDS011;2196;47.422;9.656;2024-02-15T11:07:48;0.90;;;0.87;;
4365;SDS011;2196;47.422;9.656;2024-02-15T11:10:16;1.00;;;0.97;;
4365;SDS011;2196;47.422;9.656;2024-02-15T11:12:45;0.70;;;0.50;;
4365;SDS011;2196;47.422;9.656;2024-02-15T11:15:15;0.77;;;0.77;;
4365;SDS011;2196;47.422;9.656;2024-02-15T11:18:04;0.67;;;0.60;;
4365;SDS011;2196;47.422;9.656;2024-02-15T11:20:50;2.60;;;0.93;;
4365;SDS011;2196;47.422;9.656;2024-02-15T11:23:24;0.73;;;0.73;;
4365;SDS011;2196;47.422;9.656;2024-02-15T11:25:55;1.47;;;1.37;;
4365;SDS011;2196;47.422;9.656;2024-02-15T11:28:43;0.50;;;0.50;;
4365;SDS011;2196;47.422;9.656;2024-02-15T11:33:58;3.70;;;1.07;;
4365;SDS011;2196;47.422;9.656;2024-02-15T11:36:30;2.87;;;0.90;;
4365;SDS011;2196;47.422;9.656;2024-02-15T11:38:57;0.43;;;0.40;;
4365;SDS011;2196;47.422;9.656;2024-02-15T11:41:25;0.40;;;0.40;;
4365;SDS011;2196;47.422;9.656;2024-02-15T11:43:55;4.63;;;4.07;;
4365;SDS011;2196;47.422;9.656;2024-02-15T11:46:23;4.37;;;4.17;;
4365;SDS011;2196;47.422;9.656;2024-02-15T11:48:54;5.03;;;4.73;;
4365;SDS011;2196;47.422;9.656;2024-02-15T11:51:24;6.17;;;5.67;;
4365;SDS011;2196;47.422;9.656;2024-02-15T11:54:01;6.33;;;5.77;;
4365;SDS011;2196;47.422;9.656;2024-02-15T11:56:31;5.87;;;5.10;;
4365;SDS011;2196;47.422;9.656;2024-02-15T11:59:04;5.30;;;4.80;;
4365;SDS011;2196;47.422;9.656;2024-02-15T12:01:32;5.77;;;5.07;;
4365;SDS011;2196;47.422;9.656;2024-02-15T12:04:18;5.37;;;4.87;;
4365;SDS011;2196;47.422;9.656;2024-02-15T12:07:03;5.10;;;4.50;;
4365;SDS011;2196;47.422;9.656;2024-02-15T12:09:48;4.83;;;4.33;;
4365;SDS011;2196;47.422;9.656;2024-02-15T12:12:32;5.70;;;5.13;;
4365;SDS011;2196;47.422;9.656;2024-02-15T12:15:17;6.13;;;5.63;;
4365;SDS011;2196;47.422;9.656;2024-02-15T12:21:08;4.60;;;4.20;;
4365;SDS011;2196;47.422;9.656;2024-02-15T12:23:37;5.50;;;5.20;;
4365;SDS011;2196;47.422;9.656;2024-02-15T12:26:06;5.23;;;4.73;;
4365;SDS011;2196;47.422;9.656;2024-02-15T12:28:34;5.77;;;5.00;;
4365;SDS011;2196;47.422;9.656;2024-02-15T12:31:03;9.33;;;6.70;;
4365;SDS011;2196;47.422;9.656;2024-02-15T12:33:32;6.53;;;5.97;;
4365;SDS011;2196;47.422;9.656;2024-02-15T12:36:03;9.17;;;5.67;;
4365;SDS011;2196;47.422;9.656;2024-02-15T12:38:31;7.07;;;6.30;;
4365;SDS011;2196;47.422;9.656;2024-02-15T12:40:59;6.73;;;6.00;;
4365;SDS011;2196;47.422;9.656;2024-02-15T12:43:28;6.43;;;5.93;;
4365;SDS011;2196;47.422;9.656;2024-02-15T12:45:55;6.77;;;6.13;;
4365;SDS011;2196;47.422;9.656;2024-02-15T12:48:24;6.77;;;5.87;;
4365;SDS011;2196;47.422;9.656;2024-02-15T12:50:51;7.30;;;6.13;;
4365;SDS011;2196;47.422;9.656;2024-02-15T12:53:23;6.73;;;6.13;;
4365;SDS011;2196;47.422;9.656;2024-02-15T12:55:53;6.60;;;5.30;;
4365;SDS011;2196;47.422;9.656;2024-02-15T12:58:21;6.80;;;5.33;;
4365;SDS011;2196;47.422;9.656;2024-02-15T13:00:49;8.50;;;5.93;;
4365;SDS011;2196;47.422;9.656;2024-02-15T13:03:17;6.23;;;5.73;;
4365;SDS011;2196;47.422;9.656;2024-02-15T13:05:46;6.30;;;5.90;;
4365;SDS011;2196;47.422;9.656;2024-02-15T13:08:14;6.00;;;5.47;;
4365;SDS011;2196;47.422;9.656;2024-02-15T13:10:43;5.70;;;5.40;;
4365;SDS011;2196;47.422;9.656;2024-02-15T13:13:10;8.33;;;6.90;;
4365;SDS011;2196;47.422;9.656;2024-02-15T13:15:39;6.37;;;5.73;;
4365;SDS011;2196;47.422;9.656;2024-02-15T13:18:06;6.67;;;6.03;;
4365;SDS011;2196;47.422;9.656;2024-02-15T13:20:36;7.60;;;6.80;;
4365;SDS011;2196;47.422;9.656;2024-02-15T13:23:05;7.43;;;6.93;;
4365;SDS011;2196;47.422;9.656;2024-02-15T13:25:41;7.00;;;6.30;;
4365;SDS011;2196;47.422;9.656;2024-02-15T13:28:08;6.67;;;6.03;;
4365;SDS011;2196;47.422;9.656;2024-02-15T13:30:35;7.77;;;6.97;;
4365;SDS011;2196;47.422;9.656;2024-02-15T13:33:03;9.30;;;7.13;;
4365;SDS011;2196;47.422;9.656;2024-02-15T13:35:31;6.30;;;5.30;;
4365;SDS011;2196;47.422;9.656;2024-02-15T13:37:58;5.83;;;5.33;;
4365;SDS011;2196;47.422;9.656;2024-02-15T13:40:28;6.27;;;5.67;;
4365;SDS011;2196;47.422;9.656;2024-02-15T13:42:57;6.00;;;5.40;;
4365;SDS011;2196;47.422;9.656;2024-02-15T13:45:26;5.30;;;4.87;;
4365;SDS011;2196;47.422;9.656;2024-02-15T13:47:57;4.23;;;4.03;;
4365;SDS011;2196;47.422;9.656;2024-02-15T13:50:26;4.67;;;4.47;;
4365;SDS011;2196;47.422;9.656;2024-02-15T13:52:53;4.50;;;4.30;;
4365;SDS011;2196;47.422;9.656;2024-02-15T13:55:20;5.13;;;4.67;;
4365;SDS011;2196;47.422;9.656;2024-02-15T13:57:49;5.97;;;4.47;;
4365;SDS011;2196;47.422;9.656;2024-02-15T14:00:17;4.40;;;3.97;;
4365;SDS011;2196;47.422;9.656;2024-02-15T14:02:48;4.43;;;4.13;;
4365;SDS011;2196;47.422;9.656;2024-02-15T14:05:15;5.38;;;4.88;;
4365;SDS011;2196;47.422;9.656;2024-02-15T14:07:45;4.90;;;4.40;;
4365;SDS011;2196;47.422;9.656;2024-02-15T14:10:17;4.37;;;3.87;;
4365;SDS011;2196;47.422;9.656;2024-02-15T14:12:46;5.07;;;4.67;;
4365;SDS011;2196;47.422;9.656;2024-02-15T14:15:14;4.93;;;4.47;;
4365;SDS011;2196;47.422;9.656;2024-02-15T14:17:42;4.70;;;4.33;;
4365;SDS011;2196;47.422;9.656;2024-02-15T14:20:09;6.90;;;4.70;;
4365;SDS011;2196;47.422;9.656;2024-02-15T14:22:38;6.83;;;5.00;;
4365;SDS011;2196;47.422;9.656;2024-02-15T14:25:06;4.57;;;4.17;;
4365;SDS011;2196;47.422;9.656;2024-02-15T14:27:33;5.57;;;5.07;;
4365;SDS011;2196;47.422;9.656;2024-02-15T14:30:00;6.90;;;3.77;;
4365;SDS011;2196;47.422;9.656;2024-02-15T14:32:46;4.13;;;3.90;;
4365;SDS011;2196;47.422;9.656;2024-02-15T14:35:34;6.20;;;4.60;;
4365;SDS011;2196;47.422;9.656;2024-02-15T14:38:02;7.83;;;5.00;;
4365;SDS011;2196;47.422;9.656;2024-02-15T14:40:32;5.93;;;4.90;;
4365;SDS011;2196;47.422;9.656;2024-02-15T14:42:59;4.97;;;4.53;;
4365;SDS011;2196;47.422;9.656;2024-02-15T14:45:26;4.97;;;4.33;;
4365;SDS011;2196;47.422;9.656;2024-02-15T14:47:55;7.10;;;4.47;;
4365;SDS011;2196;47.422;9.656;2024-02-15T14:50:23;6.00;;;4.80;;
4365;SDS011;2196;47.422;9.656;2024-02-15T14:52:50;6.23;;;4.63;;
4365;SDS011;2196;47.422;9.656;2024-02-15T14:55:18;4.83;;;4.43;;
4365;SDS011;2196;47.422;9.656;2024-02-15T14:57:45;7.93;;;5.33;;
4365;SDS011;2196;47.422;9.656;2024-02-15T15:00:13;5.03;;;4.40;;
4365;SDS011;2196;47.422;9.656;2024-02-15T15:02:42;5.33;;;4.20;;
4365;SDS011;2196;47.422;9.656;2024-02-15T15:05:11;5.80;;;4.93;;
4365;SDS011;2196;47.422;9.656;2024-02-15T15:07:55;5.50;;;4.20;;
4365;SDS011;2196;47.422;9.656;2024-02-15T15:10:40;7.67;;;4.40;;
4365;SDS011;2196;47.422;9.656;2024-02-15T15:13:25;8.43;;;5.47;;
4365;SDS011;2196;47.422;9.656;2024-02-15T15:15:52;9.50;;;6.03;;
4365;SDS011;2196;47.422;9.656;2024-02-15T15:18:19;5.67;;;5.17;;
4365;SDS011;2196;47.422;9.656;2024-02-15T15:20:48;5.87;;;5.40;;
4365;SDS011;2196;47.422;9.656;2024-02-15T15:23:16;5.10;;;4.70;;
4365;SDS011;2196;47.422;9.656;2024-02-15T15:25:43;5.47;;;4.67;;
4365;SDS011;2196;47.422;9.656;2024-02-15T15:28:11;6.10;;;4.93;;
4365;SDS011;2196;47.422;9.656;2024-02-15T15:30:39;5.77;;;4.73;;
4365;SDS011;2196;47.422;9.656;2024-02-15T15:33:07;8.03;;;5.43;;
4365;SDS011;2196;47.422;9.656;2024-02-15T15:35:34;5.60;;;4.87;;